createdAt,value
2017-02-23T00:00:24.098Z,0
2017-02-23T00:01:33.849Z,0
2017-02-23T00:02:42.767Z,0
2017-02-23T00:03:51.696Z,0
2017-02-23T00:05:01.566Z,0
2017-02-23T00:06:11.305Z,0
2017-02-23T00:07:20.229Z,0
2017-02-23T00:08:29.561Z,0
2017-02-23T00:09:39.288Z,0
2017-02-23T00:10:49.182Z,0
2017-02-23T00:11:58.512Z,0
2017-02-23T00:13:07.442Z,0
2017-02-23T00:14:16.782Z,0
2017-02-23T00:15:26.510Z,0
2017-02-23T00:16:35.942Z,0
2017-02-23T00:17:45.276Z,0
2017-02-23T00:18:55.035Z,0
2017-02-23T00:20:04.805Z,0
2017-02-23T00:21:14.137Z,0
2017-02-23T00:22:24.432Z,0
2017-02-23T00:23:34.167Z,0
2017-02-23T00:24:43.492Z,0
2017-02-23T00:25:52.411Z,0
2017-02-23T00:27:01.327Z,0
2017-02-23T00:28:11.070Z,0
2017-02-23T00:29:20.398Z,0
2017-02-23T00:30:29.746Z,0
2017-02-23T00:31:39.077Z,0
2017-02-23T00:32:48.402Z,0
2017-02-23T00:33:57.635Z,0
2017-02-23T00:35:07.358Z,0
2017-02-23T00:36:17.498Z,0
2017-02-23T00:37:26.832Z,0
2017-02-23T00:38:36.158Z,0
2017-02-23T00:39:45.480Z,0
2017-02-23T00:40:54.796Z,0
2017-02-23T00:42:04.525Z,0
2017-02-23T00:43:14.264Z,0
2017-02-23T00:44:23.597Z,0
2017-02-23T00:45:33.036Z,0
2017-02-23T00:46:43.166Z,0
2017-02-23T00:47:52.107Z,0
2017-02-23T00:49:01.850Z,0
2017-02-23T00:50:11.597Z,0
2017-02-23T00:51:20.508Z,0
2017-02-23T00:52:30.298Z,0
2017-02-23T00:53:40.445Z,0
2017-02-23T00:54:49.766Z,0
2017-02-23T00:55:59.096Z,0
2017-02-23T00:57:08.561Z,0
2017-02-23T00:58:17.882Z,0
2017-02-23T00:59:27.209Z,0
2017-02-23T01:00:36.542Z,0
2017-02-23T01:01:46.278Z,0
2017-02-23T01:02:55.906Z,0
2017-02-23T01:04:05.636Z,0
2017-02-23T01:05:14.977Z,0
2017-02-23T01:06:24.307Z,0
2017-02-23T01:07:34.081Z,0
2017-02-23T01:08:43.934Z,0
2017-02-23T01:09:53.266Z,0
2017-02-23T01:11:02.180Z,0
2017-02-23T01:12:11.111Z,0
2017-02-23T01:13:20.425Z,0
2017-02-23T01:14:30.322Z,0
2017-02-23T01:15:39.649Z,0
2017-02-23T01:16:48.982Z,0
2017-02-23T01:17:58.308Z,0
2017-02-23T01:19:07.217Z,0
2017-02-23T01:20:16.318Z,0
2017-02-23T01:21:26.044Z,0
2017-02-23T01:22:34.979Z,0
2017-02-23T01:23:44.299Z,0
2017-02-23T01:24:54.050Z,0
2017-02-23T01:26:04.238Z,0
2017-02-23T01:27:14.382Z,0
2017-02-23T01:28:24.131Z,0
2017-02-23T01:29:33.061Z,0
2017-02-23T01:30:42.807Z,0
2017-02-23T01:31:52.124Z,0
2017-02-23T01:33:01.464Z,0
2017-02-23T01:34:11.191Z,0
2017-02-23T01:35:20.508Z,0
2017-02-23T01:36:29.836Z,0
2017-02-23T01:37:39.717Z,0
2017-02-23T01:38:49.474Z,0
2017-02-23T01:39:59.218Z,0
2017-02-23T01:41:08.144Z,0
2017-02-23T01:42:17.465Z,0
2017-02-23T01:43:27.359Z,0
2017-02-23T01:44:37.491Z,0
2017-02-23T01:45:47.278Z,0
2017-02-23T01:46:56.606Z,0
2017-02-23T01:48:06.353Z,0
2017-02-23T01:49:15.679Z,0
2017-02-23T01:50:24.997Z,0
2017-02-23T01:51:33.909Z,0
2017-02-23T01:52:43.243Z,0
2017-02-23T01:53:52.164Z,0
2017-02-23T01:55:01.147Z,0
2017-02-23T01:56:10.879Z,0
2017-02-23T01:57:20.610Z,0
2017-02-23T01:58:29.930Z,0
2017-02-23T01:59:39.250Z,0
2017-02-23T02:00:48.307Z,0
2017-02-23T02:01:57.239Z,0
2017-02-23T02:03:06.570Z,0
2017-02-23T02:04:15.889Z,0
2017-02-23T02:05:25.611Z,0
2017-02-23T02:06:35.667Z,0
2017-02-23T02:07:45.028Z,0
2017-02-23T02:08:54.761Z,0
2017-02-23T02:10:04.507Z,0
2017-02-23T02:11:13.826Z,0
2017-02-23T02:12:23.295Z,0
2017-02-23T02:13:32.626Z,0
2017-02-23T02:14:41.945Z,0
2017-02-23T02:15:50.869Z,0
2017-02-23T02:17:00.586Z,0
2017-02-23T02:18:10.487Z,0
2017-02-23T02:19:19.400Z,0
2017-02-23T02:20:29.140Z,0
2017-02-23T02:21:38.872Z,0
2017-02-23T02:22:48.204Z,0
2017-02-23T02:23:57.124Z,0
2017-02-23T02:25:06.451Z,0
2017-02-23T02:26:15.780Z,0
2017-02-23T02:27:25.944Z,0
2017-02-23T02:28:35.669Z,0
2017-02-23T02:29:45.707Z,0
2017-02-23T02:30:55.047Z,0
2017-02-23T02:32:05.596Z,0
2017-02-23T02:33:15.320Z,0
2017-02-23T02:34:24.658Z,0
2017-02-23T02:35:33.631Z,0
2017-02-23T02:36:42.546Z,0
2017-02-23T02:37:52.302Z,0
2017-02-23T02:39:01.220Z,0
2017-02-23T02:40:10.544Z,0
2017-02-23T02:41:20.030Z,0
2017-02-23T02:42:29.756Z,0
2017-02-23T02:43:39.097Z,0
2017-02-23T02:44:48.845Z,0
2017-02-23T02:45:57.768Z,0
2017-02-23T02:47:07.410Z,0
2017-02-23T02:48:17.556Z,0
2017-02-23T02:49:26.492Z,0
2017-02-23T02:50:36.229Z,0
2017-02-23T02:51:45.984Z,0
2017-02-23T02:52:55.763Z,0
2017-02-23T02:54:05.494Z,0
2017-02-23T02:55:14.417Z,0
2017-02-23T02:56:24.148Z,0
2017-02-23T02:57:33.477Z,0
2017-02-23T02:58:43.572Z,0
2017-02-23T02:59:53.302Z,0
2017-02-23T03:01:03.457Z,0
2017-02-23T03:02:13.601Z,0
2017-02-23T03:03:22.536Z,0
2017-02-23T03:04:32.277Z,0
2017-02-23T03:05:41.620Z,0
2017-02-23T03:06:50.941Z,0
2017-02-23T03:08:00.263Z,0
2017-02-23T03:09:10.406Z,0
2017-02-23T03:10:20.251Z,0
2017-02-23T03:11:30.020Z,0
2017-02-23T03:12:39.743Z,0
2017-02-23T03:13:49.093Z,0
2017-02-23T03:14:58.427Z,0
2017-02-23T03:16:07.817Z,0
2017-02-23T03:17:17.550Z,0
2017-02-23T03:18:27.283Z,0
2017-02-23T03:19:37.038Z,0
2017-02-23T03:20:45.966Z,0
2017-02-23T03:21:55.764Z,0
2017-02-23T03:23:05.138Z,0
2017-02-23T03:24:14.466Z,0
2017-02-23T03:25:24.615Z,0
2017-02-23T03:26:34.746Z,0
2017-02-23T03:27:43.744Z,0
2017-02-23T03:28:53.065Z,0
2017-02-23T03:30:03.200Z,0
2017-02-23T03:31:12.555Z,0
2017-02-23T03:32:22.318Z,0
2017-02-23T03:33:31.717Z,0
2017-02-23T03:34:40.634Z,0
2017-02-23T03:35:50.379Z,0
2017-02-23T03:37:00.125Z,0
2017-02-23T03:38:09.906Z,0
2017-02-23T03:39:19.242Z,0
2017-02-23T03:40:28.978Z,0
2017-02-23T03:41:38.712Z,0
2017-02-23T03:42:47.623Z,0
2017-02-23T03:43:56.538Z,0
2017-02-23T03:45:06.825Z,0
2017-02-23T03:46:16.562Z,0
2017-02-23T03:47:26.713Z,0
2017-02-23T03:48:36.035Z,0
2017-02-23T03:49:45.373Z,0
2017-02-23T03:50:54.915Z,0
2017-02-23T03:52:04.669Z,0
2017-02-23T03:53:14.405Z,0
2017-02-23T03:54:23.728Z,0
2017-02-23T03:55:32.658Z,0
2017-02-23T03:56:42.895Z,0
2017-02-23T03:57:52.210Z,0
2017-02-23T03:59:01.538Z,0
2017-02-23T04:00:11.265Z,0
2017-02-23T04:01:20.991Z,0
2017-02-23T04:02:31.588Z,0
2017-02-23T04:03:41.316Z,0
2017-02-23T04:04:50.647Z,0
2017-02-23T04:05:59.983Z,0
2017-02-23T04:07:09.720Z,0
2017-02-23T04:08:19.606Z,0
2017-02-23T04:09:29.753Z,0
2017-02-23T04:10:39.486Z,0
2017-02-23T04:11:49.215Z,0
2017-02-23T04:12:58.537Z,0
2017-02-23T04:14:08.013Z,0
2017-02-23T04:15:17.763Z,0
2017-02-23T04:16:27.495Z,0
2017-02-23T04:17:36.820Z,0
2017-02-23T04:18:46.559Z,0
2017-02-23T04:19:56.176Z,0
2017-02-23T04:21:05.101Z,0
2017-02-23T04:22:14.836Z,0
2017-02-23T04:23:24.160Z,0
2017-02-23T04:24:33.092Z,0
2017-02-23T04:25:42.955Z,0
2017-02-23T04:26:52.279Z,0
2017-02-23T04:28:02.011Z,0
2017-02-23T04:29:11.335Z,0
2017-02-23T04:30:20.246Z,0
2017-02-23T04:31:29.678Z,0
2017-02-23T04:32:38.611Z,0
2017-02-23T04:33:47.958Z,0
2017-02-23T04:34:56.873Z,0
2017-02-23T04:36:06.210Z,0
2017-02-23T04:37:15.633Z,0
2017-02-23T04:38:25.370Z,0
2017-02-23T04:39:35.519Z,0
2017-02-23T04:40:45.654Z,0
2017-02-23T04:41:54.978Z,0
2017-02-23T04:43:05.265Z,0
2017-02-23T04:44:15.399Z,0
2017-02-23T04:45:24.731Z,0
2017-02-23T04:46:34.863Z,0
2017-02-23T04:47:44.589Z,0
2017-02-23T04:48:53.913Z,0
2017-02-23T04:50:03.255Z,0
2017-02-23T04:51:12.613Z,0
2017-02-23T04:52:21.954Z,0
2017-02-23T04:53:31.270Z,0
2017-02-23T04:54:40.702Z,0
2017-02-23T04:55:49.625Z,0
2017-02-23T04:56:59.394Z,0
2017-02-23T04:58:09.555Z,0
2017-02-23T04:59:19.297Z,0
2017-02-23T05:00:29.383Z,0
2017-02-23T05:01:39.129Z,0
2017-02-23T05:02:48.860Z,0
2017-02-23T05:03:58.191Z,0
2017-02-23T05:05:08.333Z,0
2017-02-23T05:06:18.062Z,0
2017-02-23T05:07:28.197Z,0
2017-02-23T05:08:37.924Z,0
2017-02-23T05:09:47.247Z,0
2017-02-23T05:10:56.999Z,0
2017-02-23T05:12:06.392Z,0
2017-02-23T05:13:16.115Z,0
2017-02-23T05:14:25.460Z,0
2017-02-23T05:15:35.184Z,0
2017-02-23T05:16:44.521Z,0
2017-02-23T05:17:54.417Z,0
2017-02-23T05:19:03.765Z,0
2017-02-23T05:20:13.493Z,0
2017-02-23T05:21:23.626Z,0
2017-02-23T05:22:33.352Z,0
2017-02-23T05:23:43.186Z,0
2017-02-23T05:24:52.504Z,0
2017-02-23T05:26:01.831Z,0
2017-02-23T05:27:11.967Z,0
2017-02-23T05:28:21.693Z,0
2017-02-23T05:29:30.757Z,0
2017-02-23T05:30:40.078Z,0
2017-02-23T05:31:50.212Z,0
2017-02-23T05:33:00.355Z,0
2017-02-23T05:34:09.680Z,0
2017-02-23T05:35:19.794Z,0
2017-02-23T05:36:29.124Z,0
2017-02-23T05:37:38.865Z,0
2017-02-23T05:38:48.196Z,0
2017-02-23T05:39:58.361Z,0
2017-02-23T05:41:08.597Z,0
2017-02-23T05:42:18.331Z,0
2017-02-23T05:43:27.240Z,0
2017-02-23T05:44:36.981Z,0
2017-02-23T05:45:46.316Z,0
2017-02-23T05:46:55.849Z,0
2017-02-23T05:48:05.615Z,0
2017-02-23T05:49:14.557Z,0
2017-02-23T05:50:24.711Z,0
2017-02-23T05:51:34.029Z,0
2017-02-23T05:52:43.733Z,0
2017-02-23T05:53:52.652Z,0
2017-02-23T05:55:01.992Z,0
2017-02-23T05:56:12.134Z,0
2017-02-23T05:57:22.689Z,0
2017-02-23T05:58:32.114Z,0
2017-02-23T05:59:42.267Z,0
2017-02-23T06:00:51.601Z,0
2017-02-23T06:02:00.950Z,0
2017-02-23T06:03:11.497Z,4
2017-02-23T06:04:22.251Z,4
2017-02-23T06:05:31.598Z,0
2017-02-23T06:06:41.327Z,4
2017-02-23T06:07:51.478Z,4
2017-02-23T06:09:00.815Z,4
2017-02-23T06:10:11.076Z,8
2017-02-23T06:11:20.408Z,4
2017-02-23T06:12:29.753Z,8
2017-02-23T06:13:38.679Z,8
2017-02-23T06:14:48.419Z,12
2017-02-23T06:15:57.388Z,16
2017-02-23T06:17:07.139Z,16
2017-02-23T06:18:16.466Z,20
2017-02-23T06:19:26.214Z,24
2017-02-23T06:20:35.127Z,24
2017-02-23T06:21:44.925Z,28
2017-02-23T06:22:54.663Z,28
2017-02-23T06:24:04.409Z,32
2017-02-23T06:25:14.572Z,36
2017-02-23T06:26:24.292Z,40
2017-02-23T06:27:34.287Z,44
2017-02-23T06:28:43.607Z,52
2017-02-23T06:29:52.937Z,56
2017-02-23T06:31:03.094Z,64
2017-02-23T06:32:12.824Z,72
2017-02-23T06:33:22.610Z,72
2017-02-23T06:34:32.359Z,72
2017-02-23T06:35:41.290Z,76
2017-02-23T06:36:51.442Z,80
2017-02-23T06:38:01.199Z,88
2017-02-23T06:39:10.569Z,88
2017-02-23T06:40:20.295Z,92
2017-02-23T06:41:30.022Z,96
2017-02-23T06:42:40.183Z,108
2017-02-23T06:43:50.734Z,116
2017-02-23T06:45:00.261Z,128
2017-02-23T06:46:09.577Z,140
2017-02-23T06:47:19.299Z,148
2017-02-23T06:48:28.629Z,156
2017-02-23T06:49:38.357Z,168
2017-02-23T06:50:48.493Z,180
2017-02-23T06:51:58.220Z,204
2017-02-23T06:53:07.545Z,232
2017-02-23T06:54:17.280Z,248
2017-02-23T06:55:27.421Z,260
2017-02-23T06:56:36.992Z,264
2017-02-23T06:57:46.323Z,280
2017-02-23T06:58:56.072Z,288
2017-02-23T07:00:06.223Z,300
2017-02-23T07:01:15.978Z,300
2017-02-23T07:02:25.905Z,292
2017-02-23T07:03:35.676Z,280
2017-02-23T07:04:44.996Z,276
2017-02-23T07:05:53.919Z,276
2017-02-23T07:07:02.822Z,292
2017-02-23T07:08:12.272Z,332
2017-02-23T07:09:21.609Z,348
2017-02-23T07:10:30.949Z,348
2017-02-23T07:11:39.875Z,344
2017-02-23T07:12:49.612Z,328
2017-02-23T07:13:59.194Z,328
2017-02-23T07:15:09.363Z,316
2017-02-23T07:16:18.267Z,308
2017-02-23T07:17:27.989Z,304
2017-02-23T07:18:37.307Z,308
2017-02-23T07:19:48.073Z,304
2017-02-23T07:20:57.394Z,328
2017-02-23T07:22:06.718Z,356
2017-02-23T07:23:16.039Z,360
2017-02-23T07:24:25.373Z,396
2017-02-23T07:25:35.650Z,452
2017-02-23T07:26:45.399Z,520
2017-02-23T07:27:55.144Z,584
2017-02-23T07:29:04.059Z,632
2017-02-23T07:30:12.970Z,664
2017-02-23T07:31:23.503Z,688
2017-02-23T07:32:33.235Z,740
2017-02-23T07:33:42.965Z,808
2017-02-23T07:34:52.277Z,820
2017-02-23T07:36:01.592Z,828
2017-02-23T07:37:11.104Z,868
2017-02-23T07:38:20.428Z,952
2017-02-23T07:39:30.572Z,1028
2017-02-23T07:40:40.302Z,1052
2017-02-23T07:41:49.618Z,1072
2017-02-23T07:42:58.999Z,1140
2017-02-23T07:44:08.724Z,1156
2017-02-23T07:45:18.448Z,1132
2017-02-23T07:46:28.606Z,1128
2017-02-23T07:47:38.333Z,1100
2017-02-23T07:48:47.709Z,1004
2017-02-23T07:49:57.835Z,1000
2017-02-23T07:51:07.562Z,1024
2017-02-23T07:52:16.910Z,988
2017-02-23T07:53:26.240Z,1076
2017-02-23T07:54:35.670Z,1128
2017-02-23T07:55:44.611Z,1180
2017-02-23T07:56:53.939Z,1260
2017-02-23T07:58:03.273Z,1400
2017-02-23T07:59:12.590Z,1396
2017-02-23T08:00:22.417Z,1444
2017-02-23T08:01:31.768Z,1436
2017-02-23T08:02:41.493Z,1376
2017-02-23T08:03:51.677Z,1280
2017-02-23T08:05:01.013Z,1224
2017-02-23T08:06:10.124Z,1152
2017-02-23T08:07:19.055Z,1088
2017-02-23T08:08:28.801Z,1224
2017-02-23T08:09:38.137Z,1284
2017-02-23T08:10:47.887Z,1292
2017-02-23T08:11:58.236Z,1140
2017-02-23T08:13:08.396Z,1060
2017-02-23T08:14:17.729Z,944
2017-02-23T08:15:27.046Z,960
2017-02-23T08:16:36.369Z,940
2017-02-23T08:17:45.928Z,852
2017-02-23T08:18:54.867Z,840
2017-02-23T08:20:04.208Z,852
2017-02-23T08:21:13.544Z,916
2017-02-23T08:22:23.289Z,996
2017-02-23T08:23:32.234Z,940
2017-02-23T08:24:42.366Z,940
2017-02-23T08:25:52.099Z,968
2017-02-23T08:27:01.836Z,1184
2017-02-23T08:28:11.988Z,1360
2017-02-23T08:29:21.902Z,1340
2017-02-23T08:30:32.060Z,1500
2017-02-23T08:31:40.997Z,1800
2017-02-23T08:32:51.130Z,2148
2017-02-23T08:34:00.471Z,2284
2017-02-23T08:35:10.267Z,2332
2017-02-23T08:36:20.084Z,1976
2017-02-23T08:37:29.839Z,1952
2017-02-23T08:38:39.162Z,2072
2017-02-23T08:39:48.515Z,1936
2017-02-23T08:40:58.138Z,1836
2017-02-23T08:42:08.308Z,1688
2017-02-23T08:43:17.632Z,1436
2017-02-23T08:44:26.986Z,1448
2017-02-23T08:45:36.312Z,1384
2017-02-23T08:46:45.463Z,1564
2017-02-23T08:47:55.212Z,1684
2017-02-23T08:49:05.361Z,1856
2017-02-23T08:50:14.276Z,1764
2017-02-23T08:51:24.021Z,1712
2017-02-23T08:52:34.259Z,1872
2017-02-23T08:53:44.412Z,2288
2017-02-23T08:54:54.552Z,2020
2017-02-23T08:56:04.299Z,1460
2017-02-23T08:57:13.218Z,1184
2017-02-23T08:58:22.700Z,868
2017-02-23T08:59:32.035Z,996
2017-02-23T09:00:41.793Z,1196
2017-02-23T09:01:51.528Z,1900
2017-02-23T09:03:00.850Z,1540
2017-02-23T09:04:11.414Z,1356
2017-02-23T09:05:20.341Z,1404
2017-02-23T09:06:29.263Z,1884
2017-02-23T09:07:39.433Z,1764
2017-02-23T09:08:49.595Z,1952
2017-02-23T09:09:59.534Z,1984
2017-02-23T09:11:09.679Z,1860
2017-02-23T09:12:19.010Z,1736
2017-02-23T09:13:28.343Z,1460
2017-02-23T09:14:38.096Z,1560
2017-02-23T09:15:47.666Z,1672
2017-02-23T09:16:56.595Z,1396
2017-02-23T09:18:06.349Z,1504
2017-02-23T09:19:16.075Z,1404
2017-02-23T09:20:25.802Z,1696
2017-02-23T09:21:35.602Z,2016
2017-02-23T09:22:45.329Z,1908
2017-02-23T09:23:55.897Z,1924
2017-02-23T09:25:05.225Z,2212
2017-02-23T09:26:14.949Z,2120
2017-02-23T09:27:25.185Z,1824
2017-02-23T09:28:34.923Z,1584
2017-02-23T09:29:44.650Z,1576
2017-02-23T09:30:53.998Z,1648
2017-02-23T09:32:03.343Z,1936
2017-02-23T09:33:12.934Z,1944
2017-02-23T09:34:22.668Z,1864
2017-02-23T09:35:31.623Z,1856
2017-02-23T09:36:40.945Z,1800
2017-02-23T09:37:50.680Z,1740
2017-02-23T09:39:00.057Z,1580
2017-02-23T09:40:09.376Z,1496
2017-02-23T09:41:19.508Z,1560
2017-02-23T09:42:28.417Z,1520
2017-02-23T09:43:38.556Z,1352
2017-02-23T09:44:48.472Z,1148
2017-02-23T09:45:57.811Z,952
2017-02-23T09:47:07.543Z,980
2017-02-23T09:48:17.275Z,1184
2017-02-23T09:49:27.023Z,1308
2017-02-23T09:50:36.439Z,1296
2017-02-23T09:51:46.597Z,1320
2017-02-23T09:52:55.533Z,1300
2017-02-23T09:54:04.848Z,1260
2017-02-23T09:55:14.612Z,1140
2017-02-23T09:56:25.443Z,1316
2017-02-23T09:57:35.175Z,1288
2017-02-23T09:58:44.505Z,1280
2017-02-23T09:59:53.822Z,1372
2017-02-23T10:01:03.978Z,1560
2017-02-23T10:02:13.367Z,1628
2017-02-23T10:03:23.114Z,1696
2017-02-23T10:04:32.031Z,1700
2017-02-23T10:05:41.361Z,1644
2017-02-23T10:06:50.269Z,1580
2017-02-23T10:08:00.401Z,1608
2017-02-23T10:09:10.145Z,1576
2017-02-23T10:10:19.065Z,1552
2017-02-23T10:11:28.790Z,1644
2017-02-23T10:12:38.517Z,1828
2017-02-23T10:13:48.422Z,2060
2017-02-23T10:14:58.176Z,2084
2017-02-23T10:16:08.335Z,2052
2017-02-23T10:17:18.077Z,1956
2017-02-23T10:18:28.225Z,1812
2017-02-23T10:19:38.003Z,1660
2017-02-23T10:20:47.350Z,1740
2017-02-23T10:21:57.895Z,2080
2017-02-23T10:23:07.267Z,2116
2017-02-23T10:24:17.002Z,1792
2017-02-23T10:25:26.086Z,1568
2017-02-23T10:26:35.824Z,2016
2017-02-23T10:27:45.549Z,2452
2017-02-23T10:28:55.710Z,2360
2017-02-23T10:30:05.040Z,2484
2017-02-23T10:31:14.431Z,2504
2017-02-23T10:32:23.783Z,2328
2017-02-23T10:33:33.534Z,2348
2017-02-23T10:34:42.858Z,2632
2017-02-23T10:35:53.422Z,2552
2017-02-23T10:37:03.930Z,3160
2017-02-23T10:38:13.253Z,3428
2017-02-23T10:39:22.180Z,3524
2017-02-23T10:40:31.929Z,3752
2017-02-23T10:41:41.254Z,4060
2017-02-23T10:42:51.643Z,4020
2017-02-23T10:44:02.202Z,4064
2017-02-23T10:45:11.522Z,4096
2017-02-23T10:46:21.262Z,3304
2017-02-23T10:47:30.581Z,2924
2017-02-23T10:48:40.083Z,3132
2017-02-23T10:49:49.421Z,2932
2017-02-23T10:50:59.166Z,2752
2017-02-23T10:52:08.086Z,2704
2017-02-23T10:53:17.436Z,2948
2017-02-23T10:54:27.223Z,2968
2017-02-23T10:55:36.562Z,3232
2017-02-23T10:56:46.299Z,3436
2017-02-23T10:57:55.640Z,3380
2017-02-23T10:59:05.375Z,3484
2017-02-23T11:00:14.326Z,2984
2017-02-23T11:01:24.469Z,2644
2017-02-23T11:02:33.805Z,2460
2017-02-23T11:03:43.184Z,2384
2017-02-23T11:04:53.334Z,2328
2017-02-23T11:06:03.126Z,2596
2017-02-23T11:07:12.447Z,2572
2017-02-23T11:08:21.382Z,2712
2017-02-23T11:09:30.723Z,2232
2017-02-23T11:10:40.885Z,2440
2017-02-23T11:11:51.189Z,2384
2017-02-23T11:13:00.535Z,2064
2017-02-23T11:14:10.670Z,1940
2017-02-23T11:15:19.998Z,2012
2017-02-23T11:16:29.733Z,1808
2017-02-23T11:17:39.108Z,1684
2017-02-23T11:18:50.057Z,2144
2017-02-23T11:19:59.797Z,2044
2017-02-23T11:21:09.949Z,2020
2017-02-23T11:22:20.095Z,2428
2017-02-23T11:23:29.898Z,2216
2017-02-23T11:24:40.062Z,2596
2017-02-23T11:25:50.190Z,3076
2017-02-23T11:26:59.545Z,3168
2017-02-23T11:28:09.289Z,3000
2017-02-23T11:29:18.616Z,3352
2017-02-23T11:30:27.942Z,4192
2017-02-23T11:31:36.867Z,3760
2017-02-23T11:32:46.222Z,4740
2017-02-23T11:33:55.131Z,5868
2017-02-23T11:35:04.522Z,5816
2017-02-23T11:36:14.260Z,6108
2017-02-23T11:37:23.999Z,5996
2017-02-23T11:38:32.958Z,6776
2017-02-23T11:39:42.689Z,6708
2017-02-23T11:40:52.245Z,6596
2017-02-23T11:42:01.169Z,7228
2017-02-23T11:43:10.909Z,7164
2017-02-23T11:44:20.234Z,8132
2017-02-23T11:45:29.979Z,8072
2017-02-23T11:46:39.056Z,8048
2017-02-23T11:47:48.396Z,8620
2017-02-23T11:48:58.126Z,10036
2017-02-23T11:50:07.872Z,11512
2017-02-23T11:51:17.217Z,11232
2017-02-23T11:52:27.201Z,10764
2017-02-23T11:53:36.559Z,10436
2017-02-23T11:54:46.728Z,11424
2017-02-23T11:55:56.072Z,12620
2017-02-23T11:57:04.998Z,13412
2017-02-23T11:58:14.886Z,13584
2017-02-23T11:59:23.806Z,13860
2017-02-23T12:00:32.729Z,14548
2017-02-23T12:01:42.094Z,14064
2017-02-23T12:02:52.266Z,11680
2017-02-23T12:04:02.253Z,10796
2017-02-23T12:05:12.015Z,10060
2017-02-23T12:06:20.931Z,9968
2017-02-23T12:07:30.251Z,6840
2017-02-23T12:08:39.580Z,7092
2017-02-23T12:09:48.981Z,6408
2017-02-23T12:10:59.537Z,4896
2017-02-23T12:12:08.854Z,4000
2017-02-23T12:13:18.616Z,5252
2017-02-23T12:14:27.953Z,6560
2017-02-23T12:15:37.848Z,7324
2017-02-23T12:16:47.165Z,9436
2017-02-23T12:17:56.487Z,8484
2017-02-23T12:19:05.838Z,6096
2017-02-23T12:20:15.586Z,6228
2017-02-23T12:21:25.194Z,5680
2017-02-23T12:22:34.950Z,5776
2017-02-23T12:23:44.270Z,8516
2017-02-23T12:24:54.007Z,11660
2017-02-23T12:26:03.329Z,13436
2017-02-23T12:27:12.811Z,14004
2017-02-23T12:28:22.575Z,15088
2017-02-23T12:29:31.502Z,15248
2017-02-23T12:30:41.646Z,11032
2017-02-23T12:31:51.393Z,9788
2017-02-23T12:33:01.279Z,6828
2017-02-23T12:34:10.618Z,7256
2017-02-23T12:35:19.538Z,5704
2017-02-23T12:36:28.867Z,5540
2017-02-23T12:37:38.598Z,6892
2017-02-23T12:38:48.024Z,6980
2017-02-23T12:39:57.766Z,7012
2017-02-23T12:41:07.903Z,6376
2017-02-23T12:42:16.821Z,6064
2017-02-23T12:43:26.561Z,5704
2017-02-23T12:44:36.004Z,5620
2017-02-23T12:45:46.987Z,6324
2017-02-23T12:46:56.742Z,7968
2017-02-23T12:48:06.075Z,9804
2017-02-23T12:49:16.224Z,10360
2017-02-23T12:50:25.235Z,8900
2017-02-23T12:51:34.558Z,7080
2017-02-23T12:52:43.912Z,5776
2017-02-23T12:53:53.663Z,4940
2017-02-23T12:55:04.222Z,3588
2017-02-23T12:56:13.864Z,4720
2017-02-23T12:57:23.214Z,4052
2017-02-23T12:58:32.127Z,4688
2017-02-23T12:59:41.040Z,6388
2017-02-23T13:00:51.194Z,6044
2017-02-23T13:02:01.194Z,6416
2017-02-23T13:03:10.529Z,5612
2017-02-23T13:04:20.253Z,4960
2017-02-23T13:05:29.179Z,4948
2017-02-23T13:06:38.548Z,5352
2017-02-23T13:07:48.806Z,4700
2017-02-23T13:08:57.727Z,5024
2017-02-23T13:10:07.478Z,4276
2017-02-23T13:11:16.811Z,3492
2017-02-23T13:12:26.541Z,3440
2017-02-23T13:13:37.085Z,2644
2017-02-23T13:14:46.418Z,2564
2017-02-23T13:15:56.603Z,3336
2017-02-23T13:17:06.744Z,3524
2017-02-23T13:18:16.902Z,3788
2017-02-23T13:19:26.380Z,5732
2017-02-23T13:20:35.711Z,5248
2017-02-23T13:21:45.866Z,4168
2017-02-23T13:22:55.240Z,3980
2017-02-23T13:24:04.580Z,3080
2017-02-23T13:25:14.933Z,3540
2017-02-23T13:26:24.663Z,3264
2017-02-23T13:27:33.995Z,3716
2017-02-23T13:28:43.327Z,4276
2017-02-23T13:29:52.644Z,4088
2017-02-23T13:31:02.548Z,3228
2017-02-23T13:32:12.306Z,2036
2017-02-23T13:33:21.620Z,2016
2017-02-23T13:34:30.968Z,2080
2017-02-23T13:35:40.310Z,2308
2017-02-23T13:36:49.366Z,2720
2017-02-23T13:38:00.319Z,3856
2017-02-23T13:39:09.643Z,3764
2017-02-23T13:40:18.587Z,3420
2017-02-23T13:41:27.938Z,2152
2017-02-23T13:42:37.020Z,2448
2017-02-23T13:43:46.345Z,3464
2017-02-23T13:44:56.096Z,2860
2017-02-23T13:46:05.868Z,2808
2017-02-23T13:47:14.786Z,3640
2017-02-23T13:48:24.153Z,2680
2017-02-23T13:49:34.291Z,2376
2017-02-23T13:50:43.617Z,2032
2017-02-23T13:51:52.946Z,2104
2017-02-23T13:53:02.694Z,2544
2017-02-23T13:54:11.668Z,2948
2017-02-23T13:55:21.023Z,3096
2017-02-23T13:56:30.351Z,2688
2017-02-23T13:57:40.091Z,2564
2017-02-23T13:58:50.240Z,2552
2017-02-23T14:00:00.056Z,2768
2017-02-23T14:01:10.207Z,2960
2017-02-23T14:02:19.563Z,2796
2017-02-23T14:03:28.903Z,2664
2017-02-23T14:04:38.239Z,3276
2017-02-23T14:05:47.727Z,3580
2017-02-23T14:06:57.504Z,3740
2017-02-23T14:08:07.236Z,3252
2017-02-23T14:09:16.978Z,3400
2017-02-23T14:10:26.710Z,2700
2017-02-23T14:11:36.156Z,2608
2017-02-23T14:12:45.484Z,2432
2017-02-23T14:13:55.218Z,3188
2017-02-23T14:15:05.375Z,4208
2017-02-23T14:16:14.312Z,5820
2017-02-23T14:17:24.190Z,4776
2017-02-23T14:18:33.957Z,4492
2017-02-23T14:19:42.886Z,2400
2017-02-23T14:20:53.047Z,3528
2017-02-23T14:22:01.972Z,4972
2017-02-23T14:23:12.338Z,3400
2017-02-23T14:24:21.663Z,2956
2017-02-23T14:25:30.587Z,4156
2017-02-23T14:26:39.925Z,3500
2017-02-23T14:27:48.843Z,2832
2017-02-23T14:28:59.555Z,3320
2017-02-23T14:30:09.297Z,4568
2017-02-23T14:31:18.226Z,5924
2017-02-23T14:32:27.566Z,4500
2017-02-23T14:33:36.500Z,2772
2017-02-23T14:34:45.970Z,2564
2017-02-23T14:35:55.710Z,3440
2017-02-23T14:37:05.059Z,4352
2017-02-23T14:38:13.985Z,4784
2017-02-23T14:39:24.572Z,5128
2017-02-23T14:40:34.194Z,4124
2017-02-23T14:41:43.935Z,5644
2017-02-23T14:42:52.879Z,4852
2017-02-23T14:44:03.464Z,2132
2017-02-23T14:45:13.202Z,2236
2017-02-23T14:46:22.176Z,2280
2017-02-23T14:47:31.541Z,3592
2017-02-23T14:48:41.297Z,2312
2017-02-23T14:49:50.658Z,3376
2017-02-23T14:50:59.993Z,3624
2017-02-23T14:52:09.275Z,5756
2017-02-23T14:53:18.219Z,9836
2017-02-23T14:54:27.580Z,14368
2017-02-23T14:55:36.504Z,43936
2017-02-23T14:56:45.830Z,36480
2017-02-23T14:57:56.163Z,14096
2017-02-23T14:59:06.305Z,9384
2017-02-23T15:00:15.220Z,9332
2017-02-23T15:01:24.554Z,14880
2017-02-23T15:02:33.874Z,15200
2017-02-23T15:03:43.300Z,15168
2017-02-23T15:04:53.460Z,19392
2017-02-23T15:06:03.613Z,8488
2017-02-23T15:07:12.953Z,9960
2017-02-23T15:08:22.714Z,4968
2017-02-23T15:09:32.637Z,4740
2017-02-23T15:10:41.976Z,3528
2017-02-23T15:11:52.179Z,2844
2017-02-23T15:13:02.361Z,2728
2017-02-23T15:14:12.117Z,2720
2017-02-23T15:15:22.005Z,1768
2017-02-23T15:16:31.757Z,1180
2017-02-23T15:17:41.502Z,964
2017-02-23T15:18:50.889Z,764
2017-02-23T15:19:59.834Z,748
2017-02-23T15:21:09.683Z,616
2017-02-23T15:22:19.837Z,652
2017-02-23T15:23:28.786Z,416
2017-02-23T15:24:38.522Z,228
2017-02-23T15:25:48.679Z,260
2017-02-23T15:26:58.075Z,592
2017-02-23T15:28:07.010Z,1464
2017-02-23T15:29:16.776Z,2916
2017-02-23T15:30:26.099Z,3552
2017-02-23T15:31:35.844Z,3072
2017-02-23T15:32:45.687Z,2264
2017-02-23T15:33:55.022Z,2020
2017-02-23T15:35:04.777Z,1316
2017-02-23T15:36:14.098Z,1428
2017-02-23T15:37:23.041Z,1604
2017-02-23T15:38:32.518Z,964
2017-02-23T15:39:42.291Z,912
2017-02-23T15:40:52.449Z,1200
2017-02-23T15:42:01.789Z,936
2017-02-23T15:43:11.117Z,500
2017-02-23T15:44:20.605Z,280
2017-02-23T15:45:30.750Z,204
2017-02-23T15:46:40.485Z,324
2017-02-23T15:47:50.236Z,796
2017-02-23T15:48:59.563Z,2612
2017-02-23T15:50:09.458Z,4808
2017-02-23T15:51:18.858Z,4008
2017-02-23T15:52:29.019Z,2992
2017-02-23T15:53:38.406Z,2180
2017-02-23T15:54:48.159Z,1712
2017-02-23T15:55:58.353Z,1180
2017-02-23T15:57:07.682Z,1164
2017-02-23T15:58:17.436Z,1116
2017-02-23T15:59:27.177Z,968
2017-02-23T16:00:36.944Z,1108
2017-02-23T16:01:46.336Z,1120
2017-02-23T16:02:56.112Z,808
2017-02-23T16:04:07.063Z,668
2017-02-23T16:05:17.627Z,504
2017-02-23T16:06:26.536Z,564
2017-02-23T16:07:36.001Z,672